sensor_id;sensor_type;location;lat;lon;timestamp;P1;durP1;ratioP1;P2;durP2;ratioP2
11879;SDS011;5999;43.256;27.816;2022-08-03T00:00:56;4.55;;;3.47;;
11879;SDS011;5999;43.256;27.816;2022-08-03T00:03:23;3.35;;;3.05;;
11879;SDS011;5999;43.256;27.816;2022-08-03T00:05:50;3.33;;;3.03;;
11879;SDS011;5999;43.256;27.816;2022-08-03T00:08:17;3.42;;;3.13;;
11879;SDS011;5999;43.256;27.816;2022-08-03T00:10:50;3.63;;;3.17;;
11879;SDS011;5999;43.256;27.816;2022-08-03T00:13:17;3.30;;;3.00;;
11879;SDS011;5999;43.256;27.816;2022-08-03T00:15:44;3.97;;;2.83;;
11879;SDS011;5999;43.256;27.816;2022-08-03T00:18:11;3.45;;;3.10;;
11879;SDS011;5999;43.256;27.816;2022-08-03T00:20:38;3.65;;;2.90;;
11879;SDS011;5999;43.256;27.816;2022-08-03T00:23:05;4.82;;;2.97;;
11879;SDS011;5999;43.256;27.816;2022-08-03T00:25:32;3.67;;;3.38;;
11879;SDS011;5999;43.256;27.816;2022-08-03T00:28:00;3.50;;;3.17;;
11879;SDS011;5999;43.256;27.816;2022-08-03T00:30:27;4.20;;;3.33;;
11879;SDS011;5999;43.256;27.816;2022-08-03T00:32:54;4.72;;;3.60;;
11879;SDS011;5999;43.256;27.816;2022-08-03T00:35:22;3.97;;;3.25;;
11879;SDS011;5999;43.256;27.816;2022-08-03T00:37:49;4.57;;;3.20;;
11879;SDS011;5999;43.256;27.816;2022-08-03T00:40:17;4.20;;;3.28;;
11879;SDS011;5999;43.256;27.816;2022-08-03T00:42:45;3.78;;;2.92;;
11879;SDS011;5999;43.256;27.816;2022-08-03T00:45:14;3.67;;;3.38;;
11879;SDS011;5999;43.256;27.816;2022-08-03T00:47:41;4.70;;;3.40;;
11879;SDS011;5999;43.256;27.816;2022-08-03T00:50:09;3.40;;;3.08;;
11879;SDS011;5999;43.256;27.816;2022-08-03T00:52:36;4.97;;;3.20;;
11879;SDS011;5999;43.256;27.816;2022-08-03T00:55:03;5.20;;;3.65;;
11879;SDS011;5999;43.256;27.816;2022-08-03T00:57:31;3.58;;;3.15;;
11879;SDS011;5999;43.256;27.816;2022-08-03T00:59:58;3.53;;;3.15;;
11879;SDS011;5999;43.256;27.816;2022-08-03T01:02:25;3.70;;;3.40;;
11879;SDS011;5999;43.256;27.816;2022-08-03T01:04:52;3.42;;;3.10;;
11879;SDS011;5999;43.256;27.816;2022-08-03T01:07:20;3.63;;;3.10;;
11879;SDS011;5999;43.256;27.816;2022-08-03T01:09:57;4.63;;;3.65;;
11879;SDS011;5999;43.256;27.816;2022-08-03T01:12:28;4.10;;;3.38;;
11879;SDS011;5999;43.256;27.816;2022-08-03T01:15:05;3.50;;;3.20;;
11879;SDS011;5999;43.256;27.816;2022-08-03T01:17:40;3.45;;;3.15;;
11879;SDS011;5999;43.256;27.816;2022-08-03T01:20:14;4.78;;;3.00;;
11879;SDS011;5999;43.256;27.816;2022-08-03T01:22:59;3.83;;;3.33;;
11879;SDS011;5999;43.256;27.816;2022-08-03T01:25:48;3.75;;;3.30;;
11879;SDS011;5999;43.256;27.816;2022-08-03T01:28:32;3.78;;;3.22;;
11879;SDS011;5999;43.256;27.816;2022-08-03T01:31:25;3.60;;;3.15;;
11879;SDS011;5999;43.256;27.816;2022-08-03T01:33:57;4.40;;;3.63;;
11879;SDS011;5999;43.256;27.816;2022-08-03T01:36:29;4.05;;;3.30;;
11879;SDS011;5999;43.256;27.816;2022-08-03T01:39:00;4.50;;;3.40;;
11879;SDS011;5999;43.256;27.816;2022-08-03T01:41:34;4.97;;;3.47;;
11879;SDS011;5999;43.256;27.816;2022-08-03T01:44:05;6.40;;;3.88;;
11879;SDS011;5999;43.256;27.816;2022-08-03T01:46:36;4.25;;;3.58;;
11879;SDS011;5999;43.256;27.816;2022-08-03T01:49:05;4.47;;;3.53;;
11879;SDS011;5999;43.256;27.816;2022-08-03T01:51:36;3.88;;;3.47;;
11879;SDS011;5999;43.256;27.816;2022-08-03T01:54:06;3.88;;;3.00;;
11879;SDS011;5999;43.256;27.816;2022-08-03T01:56:35;3.40;;;3.10;;
11879;SDS011;5999;43.256;27.816;2022-08-03T01:59:02;3.75;;;3.45;;
11879;SDS011;5999;43.256;27.816;2022-08-03T02:01:31;5.20;;;3.35;;
11879;SDS011;5999;43.256;27.816;2022-08-03T02:04:00;5.53;;;3.30;;
11879;SDS011;5999;43.256;27.816;2022-08-03T02:06:31;5.00;;;3.42;;
11879;SDS011;5999;43.256;27.816;2022-08-03T02:09:00;3.65;;;3.33;;
11879;SDS011;5999;43.256;27.816;2022-08-03T02:11:29;5.18;;;4.25;;
11879;SDS011;5999;43.256;27.816;2022-08-03T02:13:59;4.82;;;4.18;;
11879;SDS011;5999;43.256;27.816;2022-08-03T02:16:28;5.88;;;4.43;;
11879;SDS011;5999;43.256;27.816;2022-08-03T02:18:58;6.03;;;4.78;;
11879;SDS011;5999;43.256;27.816;2022-08-03T02:21:30;5.53;;;5.03;;
11879;SDS011;5999;43.256;27.816;2022-08-03T02:24:00;6.57;;;4.55;;
11879;SDS011;5999;43.256;27.816;2022-08-03T02:26:29;6.20;;;5.25;;
11879;SDS011;5999;43.256;27.816;2022-08-03T02:28:58;6.82;;;4.82;;
11879;SDS011;5999;43.256;27.816;2022-08-03T02:31:28;6.82;;;5.40;;
11879;SDS011;5999;43.256;27.816;2022-08-03T02:33:58;8.18;;;5.25;;
11879;SDS011;5999;43.256;27.816;2022-08-03T02:36:29;7.22;;;5.10;;
11879;SDS011;5999;43.256;27.816;2022-08-03T02:39:02;5.82;;;5.03;;
11879;SDS011;5999;43.256;27.816;2022-08-03T02:41:30;6.75;;;5.25;;
11879;SDS011;5999;43.256;27.816;2022-08-03T02:44:06;5.28;;;4.57;;
11879;SDS011;5999;43.256;27.816;2022-08-03T02:46:35;5.93;;;4.70;;
11879;SDS011;5999;43.256;27.816;2022-08-03T02:49:05;5.35;;;4.50;;
11879;SDS011;5999;43.256;27.816;2022-08-03T02:51:34;6.35;;;5.05;;
11879;SDS011;5999;43.256;27.816;2022-08-03T02:54:04;6.43;;;4.85;;
11879;SDS011;5999;43.256;27.816;2022-08-03T02:56:33;9.50;;;5.03;;
11879;SDS011;5999;43.256;27.816;2022-08-03T02:59:02;5.65;;;4.97;;
11879;SDS011;5999;43.256;27.816;2022-08-03T03:01:31;7.00;;;5.65;;
11879;SDS011;5999;43.256;27.816;2022-08-03T03:03:58;7.43;;;5.50;;
11879;SDS011;5999;43.256;27.816;2022-08-03T03:06:27;6.65;;;5.65;;
11879;SDS011;5999;43.256;27.816;2022-08-03T03:08:54;6.82;;;5.20;;
11879;SDS011;5999;43.256;27.816;2022-08-03T03:11:23;6.10;;;5.38;;
11879;SDS011;5999;43.256;27.816;2022-08-03T03:13:51;8.80;;;5.40;;
11879;SDS011;5999;43.256;27.816;2022-08-03T03:16:19;7.25;;;5.30;;
11879;SDS011;5999;43.256;27.816;2022-08-03T03:18:48;7.13;;;5.28;;
11879;SDS011;5999;43.256;27.816;2022-08-03T03:21:15;6.63;;;5.13;;
11879;SDS011;5999;43.256;27.816;2022-08-03T03:23:45;6.85;;;4.70;;
11879;SDS011;5999;43.256;27.816;2022-08-03T03:26:12;7.32;;;4.82;;
11879;SDS011;5999;43.256;27.816;2022-08-03T03:28:40;11.30;;;5.18;;
11879;SDS011;5999;43.256;27.816;2022-08-03T03:31:07;10.82;;;4.97;;
11879;SDS011;5999;43.256;27.816;2022-08-03T03:33:35;8.70;;;5.00;;
11879;SDS011;5999;43.256;27.816;2022-08-03T03:36:03;9.77;;;5.07;;
11879;SDS011;5999;43.256;27.816;2022-08-03T03:38:31;12.63;;;5.63;;
11879;SDS011;5999;43.256;27.816;2022-08-03T03:40:59;9.73;;;5.05;;
11879;SDS011;5999;43.256;27.816;2022-08-03T03:43:26;10.85;;;5.07;;
11879;SDS011;5999;43.256;27.816;2022-08-03T03:45:54;9.88;;;4.90;;
11879;SDS011;5999;43.256;27.816;2022-08-03T03:48:22;12.48;;;5.60;;
11879;SDS011;5999;43.256;27.816;2022-08-03T03:50:50;8.00;;;4.70;;
11879;SDS011;5999;43.256;27.816;2022-08-03T03:53:17;7.40;;;5.00;;
11879;SDS011;5999;43.256;27.816;2022-08-03T03:55:44;5.05;;;4.28;;
11879;SDS011;5999;43.256;27.816;2022-08-03T03:58:12;4.55;;;3.90;;
11879;SDS011;5999;43.256;27.816;2022-08-03T04:00:39;5.75;;;3.70;;
11879;SDS011;5999;43.256;27.816;2022-08-03T04:03:09;4.25;;;3.72;;
11879;SDS011;5999;43.256;27.816;2022-08-03T04:05:36;5.47;;;4.05;;
11879;SDS011;5999;43.256;27.816;2022-08-03T04:08:21;7.05;;;4.50;;
11879;SDS011;5999;43.256;27.816;2022-08-03T04:11:10;6.15;;;3.92;;
11879;SDS011;5999;43.256;27.816;2022-08-03T04:13:42;4.95;;;4.28;;
11879;SDS011;5999;43.256;27.816;2022-08-03T04:16:12;6.88;;;5.45;;
11879;SDS011;5999;43.256;27.816;2022-08-03T04:18:42;9.07;;;4.78;;
11879;SDS011;5999;43.256;27.816;2022-08-03T04:21:12;13.23;;;5.82;;
11879;SDS011;5999;43.256;27.816;2022-08-03T04:23:44;7.90;;;4.28;;
11879;SDS011;5999;43.256;27.816;2022-08-03T04:26:15;9.02;;;4.50;;
11879;SDS011;5999;43.256;27.816;2022-08-03T04:28:46;48.55;;;32.42;;
11879;SDS011;5999;43.256;27.816;2022-08-03T04:31:15;6.25;;;5.43;;
11879;SDS011;5999;43.256;27.816;2022-08-03T04:33:46;7.18;;;6.40;;
11879;SDS011;5999;43.256;27.816;2022-08-03T04:36:16;5.30;;;4.53;;
11879;SDS011;5999;43.256;27.816;2022-08-03T04:38:50;5.47;;;4.35;;
11879;SDS011;5999;43.256;27.816;2022-08-03T04:41:21;4.20;;;3.58;;
11879;SDS011;5999;43.256;27.816;2022-08-03T04:43:51;5.10;;;4.05;;
11879;SDS011;5999;43.256;27.816;2022-08-03T04:46:20;5.68;;;5.18;;
11879;SDS011;5999;43.256;27.816;2022-08-03T04:48:50;4.80;;;4.40;;
11879;SDS011;5999;43.256;27.816;2022-08-03T04:51:18;6.15;;;4.00;;
11879;SDS011;5999;43.256;27.816;2022-08-03T04:53:45;7.57;;;4.47;;
11879;SDS011;5999;43.256;27.816;2022-08-03T04:56:12;4.22;;;3.42;;
11879;SDS011;5999;43.256;27.816;2022-08-03T04:58:38;6.38;;;5.78;;
11879;SDS011;5999;43.256;27.816;2022-08-03T05:01:06;8.45;;;5.15;;
11879;SDS011;5999;43.256;27.816;2022-08-03T05:03:33;4.40;;;4.00;;
11879;SDS011;5999;43.256;27.816;2022-08-03T05:06:00;6.03;;;4.80;;
11879;SDS011;5999;43.256;27.816;2022-08-03T05:08:27;3.97;;;3.45;;
11879;SDS011;5999;43.256;27.816;2022-08-03T05:10:54;3.50;;;3.20;;
11879;SDS011;5999;43.256;27.816;2022-08-03T05:13:21;6.10;;;5.50;;
11879;SDS011;5999;43.256;27.816;2022-08-03T05:15:48;7.47;;;5.35;;
11879;SDS011;5999;43.256;27.816;2022-08-03T05:18:15;3.45;;;3.17;;
11879;SDS011;5999;43.256;27.816;2022-08-03T05:20:42;5.20;;;4.07;;
11879;SDS011;5999;43.256;27.816;2022-08-03T05:23:09;3.15;;;2.63;;
11879;SDS011;5999;43.256;27.816;2022-08-03T05:25:36;9.15;;;5.65;;
11879;SDS011;5999;43.256;27.816;2022-08-03T05:28:03;6.82;;;5.85;;
11879;SDS011;5999;43.256;27.816;2022-08-03T05:30:30;16.52;;;14.88;;
11879;SDS011;5999;43.256;27.816;2022-08-03T05:32:57;7.95;;;7.22;;
11879;SDS011;5999;43.256;27.816;2022-08-03T05:35:25;16.05;;;11.15;;
11879;SDS011;5999;43.256;27.816;2022-08-03T05:37:52;4.05;;;3.25;;
11879;SDS011;5999;43.256;27.816;2022-08-03T05:40:19;4.25;;;2.47;;
11879;SDS011;5999;43.256;27.816;2022-08-03T05:42:46;2.75;;;1.90;;
11879;SDS011;5999;43.256;27.816;2022-08-03T05:45:13;2.55;;;2.28;;
11879;SDS011;5999;43.256;27.816;2022-08-03T05:47:42;2.22;;;2.03;;
11879;SDS011;5999;43.256;27.816;2022-08-03T05:50:09;3.22;;;2.10;;
11879;SDS011;5999;43.256;27.816;2022-08-03T05:52:37;2.20;;;2.00;;
11879;SDS011;5999;43.256;27.816;2022-08-03T05:55:04;3.50;;;1.90;;
11879;SDS011;5999;43.256;27.816;2022-08-03T05:57:32;4.35;;;2.05;;
11879;SDS011;5999;43.256;27.816;2022-08-03T05:59:59;25.52;;;18.90;;
11879;SDS011;5999;43.256;27.816;2022-08-03T06:02:29;939.53;;;516.65;;
11879;SDS011;5999;43.256;27.816;2022-08-03T06:04:56;999.03;;;611.78;;
11879;SDS011;5999;43.256;27.816;2022-08-03T06:07:22;454.60;;;250.02;;
11879;SDS011;5999;43.256;27.816;2022-08-03T06:09:50;77.63;;;39.15;;
11879;SDS011;5999;43.256;27.816;2022-08-03T06:12:17;19.17;;;12.95;;
11879;SDS011;5999;43.256;27.816;2022-08-03T06:14:44;10.88;;;8.15;;
11879;SDS011;5999;43.256;27.816;2022-08-03T06:17:11;6.85;;;3.85;;
11879;SDS011;5999;43.256;27.816;2022-08-03T06:19:38;4.90;;;3.40;;
11879;SDS011;5999;43.256;27.816;2022-08-03T06:22:05;3.38;;;2.40;;
11879;SDS011;5999;43.256;27.816;2022-08-03T06:24:32;2.00;;;1.80;;
11879;SDS011;5999;43.256;27.816;2022-08-03T06:26:59;26.05;;;20.65;;
11879;SDS011;5999;43.256;27.816;2022-08-03T06:29:26;5.03;;;4.18;;
11879;SDS011;5999;43.256;27.816;2022-08-03T06:31:53;2.63;;;2.42;;
11879;SDS011;5999;43.256;27.816;2022-08-03T06:34:20;3.63;;;2.38;;
11879;SDS011;5999;43.256;27.816;2022-08-03T06:36:47;7.85;;;2.80;;
11879;SDS011;5999;43.256;27.816;2022-08-03T06:39:15;7.47;;;6.78;;
11879;SDS011;5999;43.256;27.816;2022-08-03T06:41:42;4.90;;;4.20;;
11879;SDS011;5999;43.256;27.816;2022-08-03T06:44:10;12.15;;;10.95;;
11879;SDS011;5999;43.256;27.816;2022-08-03T06:46:37;4.18;;;3.25;;
11879;SDS011;5999;43.256;27.816;2022-08-03T06:49:05;11.00;;;9.07;;
11879;SDS011;5999;43.256;27.816;2022-08-03T06:51:32;11.05;;;9.15;;
11879;SDS011;5999;43.256;27.816;2022-08-03T06:53:59;7.78;;;6.10;;
11879;SDS011;5999;43.256;27.816;2022-08-03T06:56:26;5.18;;;3.53;;
11879;SDS011;5999;43.256;27.816;2022-08-03T06:58:53;2.50;;;2.30;;
11879;SDS011;5999;43.256;27.816;2022-08-03T07:01:20;2.28;;;2.08;;
11879;SDS011;5999;43.256;27.816;2022-08-03T07:03:47;10.77;;;9.73;;
11879;SDS011;5999;43.256;27.816;2022-08-03T07:06:14;7.30;;;4.35;;
11879;SDS011;5999;43.256;27.816;2022-08-03T07:08:43;2.90;;;1.73;;
11879;SDS011;5999;43.256;27.816;2022-08-03T07:11:09;5.47;;;2.13;;
11879;SDS011;5999;43.256;27.816;2022-08-03T07:13:36;4.15;;;2.47;;
11879;SDS011;5999;43.256;27.816;2022-08-03T07:16:05;2.72;;;1.80;;
11879;SDS011;5999;43.256;27.816;2022-08-03T07:18:32;6.95;;;3.53;;
11879;SDS011;5999;43.256;27.816;2022-08-03T07:21:02;4.95;;;3.72;;
11879;SDS011;5999;43.256;27.816;2022-08-03T07:23:29;3.88;;;2.90;;
11879;SDS011;5999;43.256;27.816;2022-08-03T07:25:56;1.73;;;1.48;;
11879;SDS011;5999;43.256;27.816;2022-08-03T07:28:23;2.28;;;1.55;;
11879;SDS011;5999;43.256;27.816;2022-08-03T07:30:49;1.52;;;1.42;;
11879;SDS011;5999;43.256;27.816;2022-08-03T07:33:16;2.65;;;1.73;;
11879;SDS011;5999;43.256;27.816;2022-08-03T07:35:44;1.55;;;1.45;;
11879;SDS011;5999;43.256;27.816;2022-08-03T07:38:11;1.50;;;1.40;;
11879;SDS011;5999;43.256;27.816;2022-08-03T07:40:38;2.25;;;1.50;;
11879;SDS011;5999;43.256;27.816;2022-08-03T07:43:05;4.55;;;1.52;;
11879;SDS011;5999;43.256;27.816;2022-08-03T07:45:31;3.33;;;1.48;;
11879;SDS011;5999;43.256;27.816;2022-08-03T07:47:58;2.15;;;1.52;;
11879;SDS011;5999;43.256;27.816;2022-08-03T07:50:25;3.60;;;1.38;;
11879;SDS011;5999;43.256;27.816;2022-08-03T07:52:53;1.60;;;1.50;;
11879;SDS011;5999;43.256;27.816;2022-08-03T07:55:22;1.75;;;1.50;;
11879;SDS011;5999;43.256;27.816;2022-08-03T07:58:00;1.40;;;1.30;;
11879;SDS011;5999;43.256;27.816;2022-08-03T08:00:28;1.33;;;1.23;;
11879;SDS011;5999;43.256;27.816;2022-08-03T08:02:56;1.58;;;1.27;;
11879;SDS011;5999;43.256;27.816;2022-08-03T08:05:26;1.50;;;1.40;;
11879;SDS011;5999;43.256;27.816;2022-08-03T08:07:54;2.25;;;1.17;;
11879;SDS011;5999;43.256;27.816;2022-08-03T08:10:21;5.03;;;1.58;;
11879;SDS011;5999;43.256;27.816;2022-08-03T08:12:48;2.22;;;1.30;;
11879;SDS011;5999;43.256;27.816;2022-08-03T08:15:14;1.73;;;1.38;;
11879;SDS011;5999;43.256;27.816;2022-08-03T08:17:42;1.75;;;1.42;;
11879;SDS011;5999;43.256;27.816;2022-08-03T08:20:10;3.08;;;1.30;;
11879;SDS011;5999;43.256;27.816;2022-08-03T08:22:41;1.83;;;1.30;;
11879;SDS011;5999;43.256;27.816;2022-08-03T08:25:08;4.75;;;1.50;;
11879;SDS011;5999;43.256;27.816;2022-08-03T08:27:39;2.38;;;1.40;;
11879;SDS011;5999;43.256;27.816;2022-08-03T08:30:08;2.53;;;1.83;;
11879;SDS011;5999;43.256;27.816;2022-08-03T08:32:36;4.03;;;1.52;;
11879;SDS011;5999;43.256;27.816;2022-08-03T08:35:03;2.83;;;1.40;;
11879;SDS011;5999;43.256;27.816;2022-08-03T08:37:31;1.75;;;1.40;;
11879;SDS011;5999;43.256;27.816;2022-08-03T08:39:58;1.40;;;1.30;;
11879;SDS011;5999;43.256;27.816;2022-08-03T08:42:26;2.45;;;1.58;;
11879;SDS011;5999;43.256;27.816;2022-08-03T08:44:53;1.48;;;1.35;;
11879;SDS011;5999;43.256;27.816;2022-08-03T08:47:21;3.20;;;1.20;;
11879;SDS011;5999;43.256;27.816;2022-08-03T08:49:51;2.13;;;1.45;;
11879;SDS011;5999;43.256;27.816;2022-08-03T08:52:19;1.60;;;1.02;;
11879;SDS011;5999;43.256;27.816;2022-08-03T08:54:49;1.83;;;1.40;;
11879;SDS011;5999;43.256;27.816;2022-08-03T08:57:20;4.30;;;1.60;;
11879;SDS011;5999;43.256;27.816;2022-08-03T08:59:50;3.22;;;1.10;;
11879;SDS011;5999;43.256;27.816;2022-08-03T09:02:20;3.40;;;1.60;;
11879;SDS011;5999;43.256;27.816;2022-08-03T09:04:47;2.35;;;1.50;;
11879;SDS011;5999;43.256;27.816;2022-08-03T09:07:15;1.40;;;1.30;;
11879;SDS011;5999;43.256;27.816;2022-08-03T09:09:42;1.92;;;1.42;;
11879;SDS011;5999;43.256;27.816;2022-08-03T09:12:09;1.85;;;1.65;;
11879;SDS011;5999;43.256;27.816;2022-08-03T09:14:36;1.45;;;1.30;;
11879;SDS011;5999;43.256;27.816;2022-08-03T09:17:04;2.88;;;1.45;;
11879;SDS011;5999;43.256;27.816;2022-08-03T09:19:34;1.40;;;1.30;;
11879;SDS011;5999;43.256;27.816;2022-08-03T09:22:07;1.27;;;1.15;;
11879;SDS011;5999;43.256;27.816;2022-08-03T09:24:36;2.95;;;1.48;;
11879;SDS011;5999;43.256;27.816;2022-08-03T09:27:18;2.42;;;1.23;;
11879;SDS011;5999;43.256;27.816;2022-08-03T09:29:46;3.08;;;1.20;;
11879;SDS011;5999;43.256;27.816;2022-08-03T09:32:14;1.20;;;1.10;;
11879;SDS011;5999;43.256;27.816;2022-08-03T09:34:45;1.48;;;1.35;;
11879;SDS011;5999;43.256;27.816;2022-08-03T09:37:13;7.43;;;1.35;;
11879;SDS011;5999;43.256;27.816;2022-08-03T09:39:41;1.52;;;1.25;;
11879;SDS011;5999;43.256;27.816;2022-08-03T09:42:09;1.42;;;1.33;;
11879;SDS011;5999;43.256;27.816;2022-08-03T09:44:38;4.20;;;1.95;;
11879;SDS011;5999;43.256;27.816;2022-08-03T09:47:07;1.77;;;1.50;;
11879;SDS011;5999;43.256;27.816;2022-08-03T09:49:36;2.58;;;1.30;;
11879;SDS011;5999;43.256;27.816;2022-08-03T09:52:15;4.05;;;1.60;;
11879;SDS011;5999;43.256;27.816;2022-08-03T09:54:43;2.00;;;1.55;;
11879;SDS011;5999;43.256;27.816;2022-08-03T09:57:18;1.52;;;1.27;;
11879;SDS011;5999;43.256;27.816;2022-08-03T09:59:47;2.75;;;1.45;;
11879;SDS011;5999;43.256;27.816;2022-08-03T10:02:20;2.85;;;1.50;;
11879;SDS011;5999;43.256;27.816;2022-08-03T10:04:50;2.40;;;1.48;;
11879;SDS011;5999;43.256;27.816;2022-08-03T10:07:18;3.80;;;1.80;;
11879;SDS011;5999;43.256;27.816;2022-08-03T10:09:52;2.55;;;1.52;;
11879;SDS011;5999;43.256;27.816;2022-08-03T10:12:20;1.40;;;1.30;;
11879;SDS011;5999;43.256;27.816;2022-08-03T10:14:47;4.65;;;1.80;;
11879;SDS011;5999;43.256;27.816;2022-08-03T10:17:15;3.70;;;1.50;;
11879;SDS011;5999;43.256;27.816;2022-08-03T10:19:42;2.83;;;1.42;;
11879;SDS011;5999;43.256;27.816;2022-08-03T10:22:11;1.55;;;1.40;;
11879;SDS011;5999;43.256;27.816;2022-08-03T10:24:41;1.50;;;1.40;;
11879;SDS011;5999;43.256;27.816;2022-08-03T10:27:16;2.88;;;1.30;;
11879;SDS011;5999;43.256;27.816;2022-08-03T10:29:52;1.70;;;1.45;;
11879;SDS011;5999;43.256;27.816;2022-08-03T10:32:21;1.85;;;1.40;;
11879;SDS011;5999;43.256;27.816;2022-08-03T10:34:53;3.05;;;1.58;;
11879;SDS011;5999;43.256;27.816;2022-08-03T10:37:29;4.22;;;1.58;;
11879;SDS011;5999;43.256;27.816;2022-08-03T10:39:57;2.75;;;1.17;;
11879;SDS011;5999;43.256;27.816;2022-08-03T10:42:27;1.70;;;1.38;;
11879;SDS011;5999;43.256;27.816;2022-08-03T10:45:00;2.15;;;1.45;;
11879;SDS011;5999;43.256;27.816;2022-08-03T10:47:30;2.28;;;1.40;;
11879;SDS011;5999;43.256;27.816;2022-08-03T10:49:57;4.65;;;1.52;;
11879;SDS011;5999;43.256;27.816;2022-08-03T10:52:25;3.25;;;1.40;;
11879;SDS011;5999;43.256;27.816;2022-08-03T10:54:53;2.80;;;1.50;;
11879;SDS011;5999;43.256;27.816;2022-08-03T10:57:50;2.38;;;1.50;;
11879;SDS011;5999;43.256;27.816;2022-08-03T11:00:18;1.63;;;1.30;;
11879;SDS011;5999;43.256;27.816;2022-08-03T11:03:05;1.75;;;1.20;;
11879;SDS011;5999;43.256;27.816;2022-08-03T11:05:35;4.03;;;1.40;;
11879;SDS011;5999;43.256;27.816;2022-08-03T11:10:52;2.65;;;1.25;;
11879;SDS011;5999;43.256;27.816;2022-08-03T11:13:21;1.45;;;1.20;;
11879;SDS011;5999;43.256;27.816;2022-08-03T11:15:50;4.40;;;1.40;;
11879;SDS011;5999;43.256;27.816;2022-08-03T11:18:17;2.97;;;1.20;;
11879;SDS011;5999;43.256;27.816;2022-08-03T11:20:46;4.95;;;1.60;;
11879;SDS011;5999;43.256;27.816;2022-08-03T11:23:14;2.05;;;1.70;;
11879;SDS011;5999;43.256;27.816;2022-08-03T11:28:35;2.00;;;1.20;;
11879;SDS011;5999;43.256;27.816;2022-08-03T11:34:22;2.17;;;1.55;;
11879;SDS011;5999;43.256;27.816;2022-08-03T11:39:46;2.00;;;1.48;;
11879;SDS011;5999;43.256;27.816;2022-08-03T11:45:05;2.85;;;1.25;;
11879;SDS011;5999;43.256;27.816;2022-08-03T11:47:35;3.00;;;1.55;;
11879;SDS011;5999;43.256;27.816;2022-08-03T11:50:04;2.50;;;1.40;;
11879;SDS011;5999;43.256;27.816;2022-08-03T11:52:36;3.88;;;1.70;;
11879;SDS011;5999;43.256;27.816;2022-08-03T11:55:12;2.38;;;1.48;;
11879;SDS011;5999;43.256;27.816;2022-08-03T11:57:43;1.40;;;1.10;;
11879;SDS011;5999;43.256;27.816;2022-08-03T12:00:26;1.60;;;1.30;;
11879;SDS011;5999;43.256;27.816;2022-08-03T12:02:59;2.58;;;1.60;;
11879;SDS011;5999;43.256;27.816;2022-08-03T12:05:32;2.53;;;1.30;;
11879;SDS011;5999;43.256;27.816;2022-08-03T12:08:00;1.92;;;1.45;;
11879;SDS011;5999;43.256;27.816;2022-08-03T12:10:27;1.40;;;1.20;;
11879;SDS011;5999;43.256;27.816;2022-08-03T12:12:55;1.60;;;1.40;;
11879;SDS011;5999;43.256;27.816;2022-08-03T12:15:26;1.50;;;1.30;;
11879;SDS011;5999;43.256;27.816;2022-08-03T12:17:54;3.08;;;1.40;;
11879;SDS011;5999;43.256;27.816;2022-08-03T12:20:22;2.97;;;1.50;;
11879;SDS011;5999;43.256;27.816;2022-08-03T12:22:50;1.30;;;1.20;;
11879;SDS011;5999;43.256;27.816;2022-08-03T12:25:21;2.00;;;1.35;;
11879;SDS011;5999;43.256;27.816;2022-08-03T12:27:49;1.80;;;1.50;;
11879;SDS011;5999;43.256;27.816;2022-08-03T12:30:18;2.78;;;1.60;;
11879;SDS011;5999;43.256;27.816;2022-08-03T12:32:45;2.00;;;1.67;;
11879;SDS011;5999;43.256;27.816;2022-08-03T12:35:20;2.72;;;1.98;;
11879;SDS011;5999;43.256;27.816;2022-08-03T12:37:48;3.33;;;2.10;;
11879;SDS011;5999;43.256;27.816;2022-08-03T12:40:23;1.90;;;1.50;;
11879;SDS011;5999;43.256;27.816;2022-08-03T12:42:51;3.58;;;1.90;;
11879;SDS011;5999;43.256;27.816;2022-08-03T12:45:19;2.63;;;1.88;;
11879;SDS011;5999;43.256;27.816;2022-08-03T12:47:51;2.10;;;1.83;;
11879;SDS011;5999;43.256;27.816;2022-08-03T12:50:22;2.35;;;1.92;;
11879;SDS011;5999;43.256;27.816;2022-08-03T12:52:53;2.83;;;1.85;;
11879;SDS011;5999;43.256;27.816;2022-08-03T12:55:22;4.57;;;2.13;;
11879;SDS011;5999;43.256;27.816;2022-08-03T12:57:51;3.03;;;1.77;;
11879;SDS011;5999;43.256;27.816;2022-08-03T13:00:19;2.70;;;1.40;;
11879;SDS011;5999;43.256;27.816;2022-08-03T13:02:57;2.03;;;1.80;;
11879;SDS011;5999;43.256;27.816;2022-08-03T13:05:25;5.97;;;2.20;;
11879;SDS011;5999;43.256;27.816;2022-08-03T13:07:52;4.50;;;2.25;;
11879;SDS011;5999;43.256;27.816;2022-08-03T13:10:27;2.85;;;2.00;;
11879;SDS011;5999;43.256;27.816;2022-08-03T13:12:55;2.45;;;1.48;;
11879;SDS011;5999;43.256;27.816;2022-08-03T13:15:24;8.13;;;2.13;;
11879;SDS011;5999;43.256;27.816;2022-08-03T13:17:53;5.35;;;2.80;;
11879;SDS011;5999;43.256;27.816;2022-08-03T13:20:20;3.30;;;1.65;;
11879;SDS011;5999;43.256;27.816;2022-08-03T13:22:47;2.00;;;1.80;;
11879;SDS011;5999;43.256;27.816;2022-08-03T13:25:14;2.55;;;1.77;;
11879;SDS011;5999;43.256;27.816;2022-08-03T13:27:41;2.58;;;1.27;;
11879;SDS011;5999;43.256;27.816;2022-08-03T13:30:09;4.53;;;2.30;;
11879;SDS011;5999;43.256;27.816;2022-08-03T13:32:36;3.83;;;1.92;;
11879;SDS011;5999;43.256;27.816;2022-08-03T13:35:04;4.00;;;1.80;;
11879;SDS011;5999;43.256;27.816;2022-08-03T13:37:31;3.47;;;1.65;;
11879;SDS011;5999;43.256;27.816;2022-08-03T13:39:59;2.65;;;1.95;;
11879;SDS011;5999;43.256;27.816;2022-08-03T13:42:28;2.47;;;1.27;;
11879;SDS011;5999;43.256;27.816;2022-08-03T13:44:56;1.90;;;1.58;;
11879;SDS011;5999;43.256;27.816;2022-08-03T13:47:24;2.60;;;1.33;;
11879;SDS011;5999;43.256;27.816;2022-08-03T13:49:51;1.50;;;1.40;;
11879;SDS011;5999;43.256;27.816;2022-08-03T13:52:19;3.83;;;1.73;;
11879;SDS011;5999;43.256;27.816;2022-08-03T13:54:46;2.42;;;1.27;;
11879;SDS011;5999;43.256;27.816;2022-08-03T13:57:13;2.67;;;1.92;;
11879;SDS011;5999;43.256;27.816;2022-08-03T13:59:39;4.07;;;1.80;;
11879;SDS011;5999;43.256;27.816;2022-08-03T14:02:07;3.40;;;1.70;;
11879;SDS011;5999;43.256;27.816;2022-08-03T14:04:34;2.58;;;1.70;;
11879;SDS011;5999;43.256;27.816;2022-08-03T14:07:02;4.72;;;1.70;;
11879;SDS011;5999;43.256;27.816;2022-08-03T14:09:29;2.13;;;1.10;;
11879;SDS011;5999;43.256;27.816;2022-08-03T14:11:56;4.97;;;1.50;;
11879;SDS011;5999;43.256;27.816;2022-08-03T14:14:24;1.35;;;1.25;;
11879;SDS011;5999;43.256;27.816;2022-08-03T14:16:51;1.70;;;1.50;;
11879;SDS011;5999;43.256;27.816;2022-08-03T14:19:18;1.30;;;1.02;;
11879;SDS011;5999;43.256;27.816;2022-08-03T14:21:44;1.85;;;1.50;;
11879;SDS011;5999;43.256;27.816;2022-08-03T14:24:12;2.58;;;1.77;;
11879;SDS011;5999;43.256;27.816;2022-08-03T14:26:39;1.63;;;1.05;;
11879;SDS011;5999;43.256;27.816;2022-08-03T14:29:06;1.42;;;1.33;;
11879;SDS011;5999;43.256;27.816;2022-08-03T14:31:33;3.20;;;1.85;;
11879;SDS011;5999;43.256;27.816;2022-08-03T14:34:01;5.22;;;1.90;;
11879;SDS011;5999;43.256;27.816;2022-08-03T14:36:28;8.88;;;2.45;;
11879;SDS011;5999;43.256;27.816;2022-08-03T14:38:55;3.47;;;1.80;;
11879;SDS011;5999;43.256;27.816;2022-08-03T14:41:22;2.33;;;1.63;;
11879;SDS011;5999;43.256;27.816;2022-08-03T14:43:49;4.50;;;1.90;;
11879;SDS011;5999;43.256;27.816;2022-08-03T14:46:16;2.13;;;1.27;;
11879;SDS011;5999;43.256;27.816;2022-08-03T14:48:43;2.03;;;1.52;;
11879;SDS011;5999;43.256;27.816;2022-08-03T14:51:10;2.38;;;1.42;;
11879;SDS011;5999;43.256;27.816;2022-08-03T14:53:37;5.88;;;1.95;;
11879;SDS011;5999;43.256;27.816;2022-08-03T14:56:04;2.95;;;1.30;;
11879;SDS011;5999;43.256;27.816;2022-08-03T14:58:31;4.53;;;1.88;;
11879;SDS011;5999;43.256;27.816;2022-08-03T15:00:58;3.22;;;1.90;;
11879;SDS011;5999;43.256;27.816;2022-08-03T15:03:25;1.88;;;1.60;;
11879;SDS011;5999;43.256;27.816;2022-08-03T15:05:53;2.22;;;1.23;;
11879;SDS011;5999;43.256;27.816;2022-08-03T15:08:21;6.95;;;1.92;;
11879;SDS011;5999;43.256;27.816;2022-08-03T15:10:50;4.63;;;1.90;;